sensor_id;sensor_type;location;lat;lon;timestamp;P1;durP1;ratioP1;P2;durP2;ratioP2
42682;SDS011;28293;50.930;3.464;2023-11-21T00:00:48;22.48;;;15.10;;
42682;SDS011;28293;50.930;3.464;2023-11-21T00:03:14;22.88;;;16.63;;
42682;SDS011;28293;50.930;3.464;2023-11-21T00:05:41;25.52;;;17.02;;
42682;SDS011;28293;50.930;3.464;2023-11-21T00:08:07;22.98;;;16.45;;
42682;SDS011;28293;50.930;3.464;2023-11-21T00:10:33;25.15;;;16.30;;
42682;SDS011;28293;50.930;3.464;2023-11-21T00:13:00;21.55;;;16.38;;
42682;SDS011;28293;50.930;3.464;2023-11-21T00:15:27;23.45;;;16.98;;
42682;SDS011;28293;50.930;3.464;2023-11-21T00:17:53;28.73;;;20.17;;
42682;SDS011;28293;50.930;3.464;2023-11-21T00:20:19;26.70;;;19.38;;
42682;SDS011;28293;50.930;3.464;2023-11-21T00:22:45;28.58;;;18.02;;
42682;SDS011;28293;50.930;3.464;2023-11-21T00:25:11;31.20;;;19.67;;
42682;SDS011;28293;50.930;3.464;2023-11-21T00:27:40;27.90;;;18.25;;
42682;SDS011;28293;50.930;3.464;2023-11-21T00:30:06;31.58;;;19.13;;
42682;SDS011;28293;50.930;3.464;2023-11-21T00:32:35;28.92;;;19.42;;
42682;SDS011;28293;50.930;3.464;2023-11-21T00:35:01;23.48;;;18.63;;
42682;SDS011;28293;50.930;3.464;2023-11-21T00:37:27;28.35;;;19.45;;
42682;SDS011;28293;50.930;3.464;2023-11-21T00:39:53;24.65;;;17.80;;
42682;SDS011;28293;50.930;3.464;2023-11-21T00:42:18;27.13;;;19.23;;
42682;SDS011;28293;50.930;3.464;2023-11-21T00:44:44;23.95;;;16.90;;
42682;SDS011;28293;50.930;3.464;2023-11-21T00:47:10;26.20;;;19.33;;
42682;SDS011;28293;50.930;3.464;2023-11-21T00:49:36;28.17;;;19.52;;
42682;SDS011;28293;50.930;3.464;2023-11-21T00:52:04;26.23;;;17.77;;
42682;SDS011;28293;50.930;3.464;2023-11-21T00:54:30;24.20;;;17.27;;
42682;SDS011;28293;50.930;3.464;2023-11-21T00:56:56;26.75;;;16.85;;
42682;SDS011;28293;50.930;3.464;2023-11-21T00:59:22;25.45;;;16.90;;
42682;SDS011;28293;50.930;3.464;2023-11-21T01:01:51;22.45;;;16.45;;
42682;SDS011;28293;50.930;3.464;2023-11-21T01:04:19;27.80;;;18.58;;
42682;SDS011;28293;50.930;3.464;2023-11-21T01:06:45;29.35;;;17.95;;
42682;SDS011;28293;50.930;3.464;2023-11-21T01:09:10;29.48;;;18.58;;
42682;SDS011;28293;50.930;3.464;2023-11-21T01:11:37;28.85;;;17.60;;
42682;SDS011;28293;50.930;3.464;2023-11-21T01:14:04;25.20;;;18.15;;
42682;SDS011;28293;50.930;3.464;2023-11-21T01:16:29;28.58;;;17.67;;
42682;SDS011;28293;50.930;3.464;2023-11-21T01:18:57;23.77;;;16.80;;
42682;SDS011;28293;50.930;3.464;2023-11-21T01:21:24;26.25;;;18.63;;
42682;SDS011;28293;50.930;3.464;2023-11-21T01:23:50;23.13;;;17.17;;
42682;SDS011;28293;50.930;3.464;2023-11-21T01:26:15;27.15;;;17.45;;
42682;SDS011;28293;50.930;3.464;2023-11-21T01:28:41;20.27;;;16.05;;
42682;SDS011;28293;50.930;3.464;2023-11-21T01:31:07;23.65;;;17.70;;
42682;SDS011;28293;50.930;3.464;2023-11-21T01:33:32;25.15;;;16.73;;
42682;SDS011;28293;50.930;3.464;2023-11-21T01:35:58;24.50;;;16.23;;
42682;SDS011;28293;50.930;3.464;2023-11-21T01:38:25;22.17;;;15.90;;
42682;SDS011;28293;50.930;3.464;2023-11-21T01:40:51;22.63;;;15.68;;
42682;SDS011;28293;50.930;3.464;2023-11-21T01:43:16;26.15;;;16.45;;
42682;SDS011;28293;50.930;3.464;2023-11-21T01:45:42;23.00;;;15.63;;
42682;SDS011;28293;50.930;3.464;2023-11-21T01:48:10;25.35;;;17.15;;
42682;SDS011;28293;50.930;3.464;2023-11-21T01:50:35;21.13;;;15.52;;
42682;SDS011;28293;50.930;3.464;2023-11-21T01:53:02;30.08;;;18.35;;
42682;SDS011;28293;50.930;3.464;2023-11-21T01:55:28;23.95;;;16.13;;
42682;SDS011;28293;50.930;3.464;2023-11-21T01:57:55;24.33;;;16.38;;
42682;SDS011;28293;50.930;3.464;2023-11-21T02:00:22;27.95;;;18.63;;
42682;SDS011;28293;50.930;3.464;2023-11-21T02:02:48;24.52;;;16.92;;
42682;SDS011;28293;50.930;3.464;2023-11-21T02:05:14;25.90;;;17.80;;
42682;SDS011;28293;50.930;3.464;2023-11-21T02:07:43;27.85;;;17.95;;
42682;SDS011;28293;50.930;3.464;2023-11-21T02:10:09;28.23;;;16.58;;
42682;SDS011;28293;50.930;3.464;2023-11-21T02:12:39;21.73;;;14.75;;
42682;SDS011;28293;50.930;3.464;2023-11-21T02:15:12;24.08;;;16.20;;
42682;SDS011;28293;50.930;3.464;2023-11-21T02:17:48;24.95;;;15.85;;
42682;SDS011;28293;50.930;3.464;2023-11-21T02:20:19;23.98;;;17.05;;
42682;SDS011;28293;50.930;3.464;2023-11-21T02:22:50;25.30;;;16.02;;
42682;SDS011;28293;50.930;3.464;2023-11-21T02:25:26;27.67;;;16.05;;
42682;SDS011;28293;50.930;3.464;2023-11-21T02:27:53;28.23;;;17.42;;
42682;SDS011;28293;50.930;3.464;2023-11-21T02:30:20;23.35;;;17.27;;
42682;SDS011;28293;50.930;3.464;2023-11-21T02:32:50;24.08;;;15.38;;
42682;SDS011;28293;50.930;3.464;2023-11-21T02:35:18;31.08;;;19.73;;
42682;SDS011;28293;50.930;3.464;2023-11-21T02:37:46;27.05;;;17.92;;
42682;SDS011;28293;50.930;3.464;2023-11-21T02:40:12;22.42;;;15.60;;
42682;SDS011;28293;50.930;3.464;2023-11-21T02:42:38;24.33;;;16.23;;
42682;SDS011;28293;50.930;3.464;2023-11-21T02:45:06;22.40;;;15.20;;
42682;SDS011;28293;50.930;3.464;2023-11-21T02:47:32;25.77;;;17.65;;
42682;SDS011;28293;50.930;3.464;2023-11-21T02:49:58;24.95;;;16.45;;
42682;SDS011;28293;50.930;3.464;2023-11-21T02:52:24;29.05;;;18.10;;
42682;SDS011;28293;50.930;3.464;2023-11-21T02:54:50;30.67;;;20.25;;
42682;SDS011;28293;50.930;3.464;2023-11-21T02:57:16;26.70;;;16.48;;
42682;SDS011;28293;50.930;3.464;2023-11-21T02:59:42;28.33;;;18.45;;
42682;SDS011;28293;50.930;3.464;2023-11-21T03:02:08;30.08;;;17.42;;
42682;SDS011;28293;50.930;3.464;2023-11-21T03:04:34;26.80;;;15.90;;
42682;SDS011;28293;50.930;3.464;2023-11-21T03:07:00;25.90;;;17.10;;
42682;SDS011;28293;50.930;3.464;2023-11-21T03:09:25;23.40;;;16.98;;
42682;SDS011;28293;50.930;3.464;2023-11-21T03:11:52;30.13;;;17.83;;
42682;SDS011;28293;50.930;3.464;2023-11-21T03:14:18;28.05;;;18.90;;
42682;SDS011;28293;50.930;3.464;2023-11-21T03:16:45;29.98;;;18.08;;
42682;SDS011;28293;50.930;3.464;2023-11-21T03:19:11;28.10;;;17.50;;
42682;SDS011;28293;50.930;3.464;2023-11-21T03:21:36;27.17;;;16.75;;
42682;SDS011;28293;50.930;3.464;2023-11-21T03:24:02;26.58;;;17.80;;
42682;SDS011;28293;50.930;3.464;2023-11-21T03:26:28;30.38;;;18.38;;
42682;SDS011;28293;50.930;3.464;2023-11-21T03:28:55;28.20;;;19.00;;
42682;SDS011;28293;50.930;3.464;2023-11-21T03:31:21;25.73;;;18.08;;
42682;SDS011;28293;50.930;3.464;2023-11-21T03:33:46;29.52;;;18.90;;
42682;SDS011;28293;50.930;3.464;2023-11-21T03:36:12;35.58;;;21.85;;
42682;SDS011;28293;50.930;3.464;2023-11-21T03:38:40;29.67;;;19.88;;
42682;SDS011;28293;50.930;3.464;2023-11-21T03:41:06;28.45;;;19.10;;
42682;SDS011;28293;50.930;3.464;2023-11-21T03:43:35;34.30;;;19.83;;
42682;SDS011;28293;50.930;3.464;2023-11-21T03:46:01;36.50;;;22.80;;
42682;SDS011;28293;50.930;3.464;2023-11-21T03:48:27;33.80;;;22.65;;
42682;SDS011;28293;50.930;3.464;2023-11-21T03:50:53;37.83;;;24.40;;
42682;SDS011;28293;50.930;3.464;2023-11-21T03:53:18;36.67;;;24.60;;
42682;SDS011;28293;50.930;3.464;2023-11-21T03:55:44;34.65;;;23.90;;
42682;SDS011;28293;50.930;3.464;2023-11-21T03:58:10;39.70;;;25.02;;
42682;SDS011;28293;50.930;3.464;2023-11-21T04:00:35;37.30;;;25.05;;
42682;SDS011;28293;50.930;3.464;2023-11-21T04:03:01;44.15;;;27.00;;
42682;SDS011;28293;50.930;3.464;2023-11-21T04:05:26;36.00;;;23.60;;
42682;SDS011;28293;50.930;3.464;2023-11-21T04:07:52;37.97;;;26.30;;
42682;SDS011;28293;50.930;3.464;2023-11-21T04:10:18;42.28;;;28.48;;
42682;SDS011;28293;50.930;3.464;2023-11-21T04:12:44;42.78;;;28.92;;
42682;SDS011;28293;50.930;3.464;2023-11-21T04:15:10;42.55;;;26.90;;
42682;SDS011;28293;50.930;3.464;2023-11-21T04:17:37;43.20;;;29.10;;
42682;SDS011;28293;50.930;3.464;2023-11-21T04:20:04;37.58;;;25.92;;
42682;SDS011;28293;50.930;3.464;2023-11-21T04:22:40;44.33;;;29.00;;
42682;SDS011;28293;50.930;3.464;2023-11-21T04:25:09;38.55;;;25.58;;
42682;SDS011;28293;50.930;3.464;2023-11-21T04:27:39;41.80;;;28.45;;
42682;SDS011;28293;50.930;3.464;2023-11-21T04:30:05;41.55;;;27.30;;
42682;SDS011;28293;50.930;3.464;2023-11-21T04:32:31;41.38;;;26.58;;
42682;SDS011;28293;50.930;3.464;2023-11-21T04:34:57;40.67;;;26.92;;
42682;SDS011;28293;50.930;3.464;2023-11-21T04:37:22;38.55;;;26.55;;
42682;SDS011;28293;50.930;3.464;2023-11-21T04:39:49;41.35;;;28.02;;
42682;SDS011;28293;50.930;3.464;2023-11-21T04:42:15;42.20;;;27.67;;
42682;SDS011;28293;50.930;3.464;2023-11-21T04:44:40;38.58;;;25.15;;
42682;SDS011;28293;50.930;3.464;2023-11-21T04:47:06;44.50;;;28.63;;
42682;SDS011;28293;50.930;3.464;2023-11-21T04:49:32;43.22;;;28.60;;
42682;SDS011;28293;50.930;3.464;2023-11-21T04:51:58;46.75;;;29.58;;
42682;SDS011;28293;50.930;3.464;2023-11-21T04:54:24;41.83;;;28.00;;
42682;SDS011;28293;50.930;3.464;2023-11-21T04:56:50;38.08;;;25.83;;
42682;SDS011;28293;50.930;3.464;2023-11-21T04:59:15;39.92;;;26.23;;
42682;SDS011;28293;50.930;3.464;2023-11-21T05:01:41;41.35;;;27.33;;
42682;SDS011;28293;50.930;3.464;2023-11-21T05:04:06;38.55;;;25.88;;
42682;SDS011;28293;50.930;3.464;2023-11-21T05:06:33;41.08;;;25.75;;
42682;SDS011;28293;50.930;3.464;2023-11-21T05:08:59;44.08;;;26.13;;
42682;SDS011;28293;50.930;3.464;2023-11-21T05:11:25;37.55;;;26.77;;
42682;SDS011;28293;50.930;3.464;2023-11-21T05:13:52;39.10;;;25.80;;
42682;SDS011;28293;50.930;3.464;2023-11-21T05:16:19;39.15;;;25.52;;
42682;SDS011;28293;50.930;3.464;2023-11-21T05:18:45;35.65;;;23.75;;
42682;SDS011;28293;50.930;3.464;2023-11-21T05:21:10;34.08;;;23.88;;
42682;SDS011;28293;50.930;3.464;2023-11-21T05:23:36;38.03;;;24.85;;
42682;SDS011;28293;50.930;3.464;2023-11-21T05:26:02;34.78;;;25.27;;
42682;SDS011;28293;50.930;3.464;2023-11-21T05:28:28;35.78;;;24.67;;
42682;SDS011;28293;50.930;3.464;2023-11-21T05:30:54;51.20;;;31.85;;
42682;SDS011;28293;50.930;3.464;2023-11-21T05:33:20;42.97;;;28.50;;
42682;SDS011;28293;50.930;3.464;2023-11-21T05:35:45;42.70;;;28.02;;
42682;SDS011;28293;50.930;3.464;2023-11-21T05:38:13;40.78;;;27.42;;
42682;SDS011;28293;50.930;3.464;2023-11-21T05:40:39;38.08;;;25.35;;
42682;SDS011;28293;50.930;3.464;2023-11-21T05:43:05;37.25;;;26.25;;
42682;SDS011;28293;50.930;3.464;2023-11-21T05:45:31;35.30;;;23.98;;
42682;SDS011;28293;50.930;3.464;2023-11-21T05:47:58;35.85;;;26.20;;
42682;SDS011;28293;50.930;3.464;2023-11-21T05:50:24;38.08;;;25.83;;
42682;SDS011;28293;50.930;3.464;2023-11-21T05:52:49;40.05;;;26.80;;
42682;SDS011;28293;50.930;3.464;2023-11-21T05:55:15;45.67;;;29.20;;
42682;SDS011;28293;50.930;3.464;2023-11-21T05:57:42;50.72;;;29.70;;
42682;SDS011;28293;50.930;3.464;2023-11-21T06:00:09;50.63;;;33.45;;
42682;SDS011;28293;50.930;3.464;2023-11-21T06:02:37;47.95;;;31.30;;
42682;SDS011;28293;50.930;3.464;2023-11-21T06:05:04;46.53;;;29.60;;
42682;SDS011;28293;50.930;3.464;2023-11-21T06:07:30;42.45;;;27.73;;
42682;SDS011;28293;50.930;3.464;2023-11-21T06:09:55;46.45;;;27.77;;
42682;SDS011;28293;50.930;3.464;2023-11-21T06:12:21;42.08;;;28.30;;
42682;SDS011;28293;50.930;3.464;2023-11-21T06:14:47;38.25;;;26.48;;
42682;SDS011;28293;50.930;3.464;2023-11-21T06:17:13;42.20;;;29.92;;
42682;SDS011;28293;50.930;3.464;2023-11-21T06:19:39;44.55;;;27.88;;
42682;SDS011;28293;50.930;3.464;2023-11-21T06:22:05;40.30;;;26.25;;
42682;SDS011;28293;50.930;3.464;2023-11-21T06:24:31;38.08;;;26.45;;
42682;SDS011;28293;50.930;3.464;2023-11-21T06:26:57;43.70;;;27.48;;
42682;SDS011;28293;50.930;3.464;2023-11-21T06:29:22;37.38;;;26.25;;
42682;SDS011;28293;50.930;3.464;2023-11-21T06:31:48;41.67;;;28.15;;
42682;SDS011;28293;50.930;3.464;2023-11-21T06:34:14;43.63;;;28.20;;
42682;SDS011;28293;50.930;3.464;2023-11-21T06:36:40;42.08;;;28.45;;
42682;SDS011;28293;50.930;3.464;2023-11-21T06:39:06;42.30;;;29.80;;
42682;SDS011;28293;50.930;3.464;2023-11-21T06:41:33;43.35;;;29.67;;
42682;SDS011;28293;50.930;3.464;2023-11-21T06:43:59;47.45;;;30.35;;
42682;SDS011;28293;50.930;3.464;2023-11-21T06:46:24;40.28;;;28.35;;
42682;SDS011;28293;50.930;3.464;2023-11-21T06:48:50;46.85;;;30.67;;
42682;SDS011;28293;50.930;3.464;2023-11-21T06:51:16;56.13;;;31.42;;
42682;SDS011;28293;50.930;3.464;2023-11-21T06:53:41;42.65;;;29.05;;
42682;SDS011;28293;50.930;3.464;2023-11-21T06:56:16;49.72;;;30.38;;
42682;SDS011;28293;50.930;3.464;2023-11-21T06:58:43;42.53;;;28.98;;
42682;SDS011;28293;50.930;3.464;2023-11-21T07:01:10;43.97;;;27.80;;
42682;SDS011;28293;50.930;3.464;2023-11-21T07:03:36;41.08;;;28.08;;
42682;SDS011;28293;50.930;3.464;2023-11-21T07:06:02;41.95;;;27.30;;
42682;SDS011;28293;50.930;3.464;2023-11-21T07:08:28;39.58;;;25.30;;
42682;SDS011;28293;50.930;3.464;2023-11-21T07:10:54;39.00;;;26.35;;
42682;SDS011;28293;50.930;3.464;2023-11-21T07:13:20;45.25;;;27.90;;
42682;SDS011;28293;50.930;3.464;2023-11-21T07:15:46;40.50;;;23.23;;
42682;SDS011;28293;50.930;3.464;2023-11-21T07:18:13;38.78;;;25.58;;
42682;SDS011;28293;50.930;3.464;2023-11-21T07:20:39;39.53;;;26.02;;
42682;SDS011;28293;50.930;3.464;2023-11-21T07:23:04;44.70;;;26.70;;
42682;SDS011;28293;50.930;3.464;2023-11-21T07:25:31;34.25;;;22.70;;
42682;SDS011;28293;50.930;3.464;2023-11-21T07:27:58;35.00;;;23.10;;
42682;SDS011;28293;50.930;3.464;2023-11-21T07:30:25;34.95;;;23.40;;
42682;SDS011;28293;50.930;3.464;2023-11-21T07:32:50;38.58;;;22.27;;
42682;SDS011;28293;50.930;3.464;2023-11-21T07:35:16;29.70;;;19.02;;
42682;SDS011;28293;50.930;3.464;2023-11-21T07:37:42;28.80;;;18.73;;
42682;SDS011;28293;50.930;3.464;2023-11-21T07:40:08;31.83;;;19.83;;
42682;SDS011;28293;50.930;3.464;2023-11-21T07:42:36;36.28;;;19.50;;
42682;SDS011;28293;50.930;3.464;2023-11-21T07:45:02;31.80;;;20.10;;
42682;SDS011;28293;50.930;3.464;2023-11-21T07:47:29;32.45;;;21.05;;
42682;SDS011;28293;50.930;3.464;2023-11-21T07:49:55;29.08;;;18.15;;
42682;SDS011;28293;50.930;3.464;2023-11-21T07:52:23;29.05;;;19.65;;
42682;SDS011;28293;50.930;3.464;2023-11-21T07:54:49;31.33;;;20.35;;
42682;SDS011;28293;50.930;3.464;2023-11-21T07:57:14;32.10;;;19.88;;
42682;SDS011;28293;50.930;3.464;2023-11-21T07:59:40;30.23;;;19.88;;
42682;SDS011;28293;50.930;3.464;2023-11-21T08:02:06;30.85;;;21.08;;
42682;SDS011;28293;50.930;3.464;2023-11-21T08:04:32;28.55;;;19.25;;
42682;SDS011;28293;50.930;3.464;2023-11-21T08:06:58;32.90;;;19.95;;
42682;SDS011;28293;50.930;3.464;2023-11-21T08:09:24;31.30;;;18.90;;
42682;SDS011;28293;50.930;3.464;2023-11-21T08:11:50;28.05;;;18.40;;
42682;SDS011;28293;50.930;3.464;2023-11-21T08:14:18;30.33;;;21.38;;
42682;SDS011;28293;50.930;3.464;2023-11-21T08:16:44;31.95;;;20.63;;
42682;SDS011;28293;50.930;3.464;2023-11-21T08:19:09;31.85;;;21.45;;
42682;SDS011;28293;50.930;3.464;2023-11-21T08:21:36;31.38;;;21.70;;
42682;SDS011;28293;50.930;3.464;2023-11-21T08:24:04;31.40;;;21.52;;
42682;SDS011;28293;50.930;3.464;2023-11-21T08:26:30;30.20;;;21.20;;
42682;SDS011;28293;50.930;3.464;2023-11-21T08:28:56;27.27;;;18.85;;
42682;SDS011;28293;50.930;3.464;2023-11-21T08:31:25;33.28;;;21.58;;
42682;SDS011;28293;50.930;3.464;2023-11-21T08:33:51;29.88;;;19.95;;
42682;SDS011;28293;50.930;3.464;2023-11-21T08:36:19;27.45;;;17.90;;
42682;SDS011;28293;50.930;3.464;2023-11-21T08:38:46;27.10;;;18.60;;
42682;SDS011;28293;50.930;3.464;2023-11-21T08:41:11;31.20;;;19.80;;
42682;SDS011;28293;50.930;3.464;2023-11-21T08:43:37;29.50;;;19.35;;
42682;SDS011;28293;50.930;3.464;2023-11-21T08:46:05;30.25;;;20.23;;
42682;SDS011;28293;50.930;3.464;2023-11-21T08:48:31;29.65;;;18.77;;
42682;SDS011;28293;50.930;3.464;2023-11-21T08:50:56;29.08;;;18.75;;
42682;SDS011;28293;50.930;3.464;2023-11-21T08:53:22;29.88;;;18.40;;
42682;SDS011;28293;50.930;3.464;2023-11-21T08:55:48;27.63;;;18.23;;
42682;SDS011;28293;50.930;3.464;2023-11-21T08:58:15;26.25;;;17.73;;
42682;SDS011;28293;50.930;3.464;2023-11-21T09:00:40;29.88;;;19.13;;
42682;SDS011;28293;50.930;3.464;2023-11-21T09:03:06;24.85;;;16.92;;
42682;SDS011;28293;50.930;3.464;2023-11-21T09:05:33;25.33;;;16.80;;
42682;SDS011;28293;50.930;3.464;2023-11-21T09:08:03;24.42;;;15.18;;
42682;SDS011;28293;50.930;3.464;2023-11-21T09:10:29;23.40;;;14.27;;
42682;SDS011;28293;50.930;3.464;2023-11-21T09:12:55;21.20;;;13.48;;
42682;SDS011;28293;50.930;3.464;2023-11-21T09:15:20;19.75;;;13.23;;
42682;SDS011;28293;50.930;3.464;2023-11-21T09:17:46;16.80;;;12.45;;
42682;SDS011;28293;50.930;3.464;2023-11-21T09:20:12;16.77;;;11.98;;
42682;SDS011;28293;50.930;3.464;2023-11-21T09:22:39;17.10;;;11.88;;
42682;SDS011;28293;50.930;3.464;2023-11-21T09:25:05;16.38;;;10.70;;
42682;SDS011;28293;50.930;3.464;2023-11-21T09:27:33;14.60;;;10.45;;
42682;SDS011;28293;50.930;3.464;2023-11-21T09:30:00;16.58;;;10.10;;
42682;SDS011;28293;50.930;3.464;2023-11-21T09:32:26;16.95;;;9.88;;
42682;SDS011;28293;50.930;3.464;2023-11-21T09:34:52;17.42;;;10.02;;
42682;SDS011;28293;50.930;3.464;2023-11-21T09:37:20;16.17;;;9.68;;
42682;SDS011;28293;50.930;3.464;2023-11-21T09:39:46;16.00;;;8.65;;
42682;SDS011;28293;50.930;3.464;2023-11-21T09:42:13;17.40;;;9.13;;
42682;SDS011;28293;50.930;3.464;2023-11-21T09:47:20;13.77;;;8.15;;
42682;SDS011;28293;50.930;3.464;2023-11-21T09:49:47;12.02;;;7.95;;
42682;SDS011;28293;50.930;3.464;2023-11-21T09:52:27;14.00;;;8.00;;
42682;SDS011;28293;50.930;3.464;2023-11-21T09:54:54;13.38;;;7.63;;
42682;SDS011;28293;50.930;3.464;2023-11-21T09:57:23;14.32;;;7.28;;
42682;SDS011;28293;50.930;3.464;2023-11-21T09:59:50;12.60;;;7.13;;
42682;SDS011;28293;50.930;3.464;2023-11-21T10:02:24;13.48;;;7.00;;
42682;SDS011;28293;50.930;3.464;2023-11-21T10:04:53;12.85;;;6.80;;
42682;SDS011;28293;50.930;3.464;2023-11-21T10:07:20;10.82;;;6.78;;
42682;SDS011;28293;50.930;3.464;2023-11-21T10:09:46;11.95;;;6.70;;
42682;SDS011;28293;50.930;3.464;2023-11-21T10:12:14;10.82;;;5.97;;
42682;SDS011;28293;50.930;3.464;2023-11-21T10:14:41;11.13;;;5.70;;
42682;SDS011;28293;50.930;3.464;2023-11-21T10:17:07;11.13;;;5.72;;
42682;SDS011;28293;50.930;3.464;2023-11-21T10:19:37;12.68;;;5.90;;
42682;SDS011;28293;50.930;3.464;2023-11-21T10:22:04;12.68;;;6.20;;
42682;SDS011;28293;50.930;3.464;2023-11-21T10:24:32;11.90;;;5.13;;
42682;SDS011;28293;50.930;3.464;2023-11-21T10:26:58;15.55;;;6.38;;
42682;SDS011;28293;50.930;3.464;2023-11-21T10:29:24;11.25;;;6.40;;
42682;SDS011;28293;50.930;3.464;2023-11-21T10:31:51;13.15;;;6.85;;
42682;SDS011;28293;50.930;3.464;2023-11-21T10:34:22;11.32;;;6.68;;
42682;SDS011;28293;50.930;3.464;2023-11-21T10:36:48;12.40;;;7.57;;
42682;SDS011;28293;50.930;3.464;2023-11-21T10:39:14;13.40;;;7.10;;
42682;SDS011;28293;50.930;3.464;2023-11-21T10:41:47;15.75;;;8.07;;
42682;SDS011;28293;50.930;3.464;2023-11-21T10:44:14;14.10;;;7.70;;
42682;SDS011;28293;50.930;3.464;2023-11-21T10:46:45;18.15;;;8.68;;
42682;SDS011;28293;50.930;3.464;2023-11-21T10:49:18;17.75;;;7.90;;
42682;SDS011;28293;50.930;3.464;2023-11-21T10:51:45;13.90;;;8.10;;
42682;SDS011;28293;50.930;3.464;2023-11-21T10:54:16;12.63;;;7.53;;
42682;SDS011;28293;50.930;3.464;2023-11-21T10:56:42;15.32;;;8.63;;
42682;SDS011;28293;50.930;3.464;2023-11-21T10:59:10;14.38;;;7.78;;
42682;SDS011;28293;50.930;3.464;2023-11-21T11:01:41;13.73;;;6.68;;
42682;SDS011;28293;50.930;3.464;2023-11-21T11:04:09;11.18;;;6.53;;
42682;SDS011;28293;50.930;3.464;2023-11-21T11:06:41;14.85;;;6.43;;
42682;SDS011;28293;50.930;3.464;2023-11-21T11:09:09;13.13;;;6.25;;
42682;SDS011;28293;50.930;3.464;2023-11-21T11:11:38;14.93;;;6.85;;
42682;SDS011;28293;50.930;3.464;2023-11-21T11:14:12;11.00;;;6.07;;
42682;SDS011;28293;50.930;3.464;2023-11-21T11:16:39;12.38;;;6.00;;
42682;SDS011;28293;50.930;3.464;2023-11-21T11:19:06;15.15;;;6.53;;
42682;SDS011;28293;50.930;3.464;2023-11-21T11:21:43;12.57;;;5.82;;
42682;SDS011;28293;50.930;3.464;2023-11-21T11:27:18;12.80;;;5.93;;
42682;SDS011;28293;50.930;3.464;2023-11-21T11:40:47;16.80;;;7.15;;
42682;SDS011;28293;50.930;3.464;2023-11-21T11:43:13;11.52;;;4.95;;
42682;SDS011;28293;50.930;3.464;2023-11-21T11:45:55;14.45;;;4.70;;
42682;SDS011;28293;50.930;3.464;2023-11-21T11:48:22;13.00;;;4.30;;
42682;SDS011;28293;50.930;3.464;2023-11-21T11:51:01;8.63;;;3.97;;
42682;SDS011;28293;50.930;3.464;2023-11-21T11:53:43;12.38;;;4.38;;
42682;SDS011;28293;50.930;3.464;2023-11-21T11:59:02;11.55;;;4.25;;
42682;SDS011;28293;50.930;3.464;2023-11-21T12:01:30;15.43;;;4.32;;
42682;SDS011;28293;50.930;3.464;2023-11-21T12:04:40;11.27;;;5.35;;
42682;SDS011;28293;50.930;3.464;2023-11-21T12:06:48;10.63;;;4.28;;
42682;SDS011;28293;50.930;3.464;2023-11-21T12:09:19;14.13;;;4.68;;
42682;SDS011;28293;50.930;3.464;2023-11-21T12:11:46;11.70;;;4.47;;
42682;SDS011;28293;50.930;3.464;2023-11-21T12:14:16;10.27;;;4.03;;
42682;SDS011;28293;50.930;3.464;2023-11-21T12:16:42;13.38;;;4.40;;
42682;SDS011;28293;50.930;3.464;2023-11-21T12:19:09;9.90;;;3.83;;
42682;SDS011;28293;50.930;3.464;2023-11-21T12:21:36;11.15;;;3.33;;
42682;SDS011;28293;50.930;3.464;2023-11-21T12:24:02;11.90;;;3.97;;
42682;SDS011;28293;50.930;3.464;2023-11-21T12:26:28;12.25;;;4.30;;
42682;SDS011;28293;50.930;3.464;2023-11-21T12:28:54;9.90;;;3.53;;
42682;SDS011;28293;50.930;3.464;2023-11-21T12:31:21;10.57;;;3.78;;
42682;SDS011;28293;50.930;3.464;2023-11-21T12:33:47;8.27;;;3.35;;
42682;SDS011;28293;50.930;3.464;2023-11-21T12:36:12;9.32;;;3.75;;
42682;SDS011;28293;50.930;3.464;2023-11-21T12:38:38;10.77;;;3.38;;
42682;SDS011;28293;50.930;3.464;2023-11-21T12:41:04;7.05;;;2.95;;
42682;SDS011;28293;50.930;3.464;2023-11-21T12:43:31;10.95;;;3.08;;
42682;SDS011;28293;50.930;3.464;2023-11-21T12:46:10;5.90;;;2.78;;
42682;SDS011;28293;50.930;3.464;2023-11-21T12:48:42;8.85;;;3.10;;
42682;SDS011;28293;50.930;3.464;2023-11-21T12:51:09;9.82;;;2.70;;
42682;SDS011;28293;50.930;3.464;2023-11-21T12:53:43;8.50;;;3.08;;
42682;SDS011;28293;50.930;3.464;2023-11-21T12:56:10;9.23;;;2.90;;
42682;SDS011;28293;50.930;3.464;2023-11-21T12:58:37;9.75;;;4.68;;
42682;SDS011;28293;50.930;3.464;2023-11-21T13:01:07;8.27;;;3.60;;
42682;SDS011;28293;50.930;3.464;2023-11-21T13:03:43;8.25;;;3.38;;
42682;SDS011;28293;50.930;3.464;2023-11-21T13:06:10;7.60;;;3.10;;
42682;SDS011;28293;50.930;3.464;2023-11-21T13:08:37;8.98;;;3.28;;
42682;SDS011;28293;50.930;3.464;2023-11-21T13:11:04;7.65;;;2.70;;
42682;SDS011;28293;50.930;3.464;2023-11-21T13:13:31;6.85;;;2.80;;
42682;SDS011;28293;50.930;3.464;2023-11-21T13:15:59;6.93;;;2.65;;
42682;SDS011;28293;50.930;3.464;2023-11-21T13:18:33;6.82;;;2.65;;
42682;SDS011;28293;50.930;3.464;2023-11-21T13:20:59;9.55;;;3.58;;
42682;SDS011;28293;50.930;3.464;2023-11-21T13:23:39;7.20;;;2.95;;
42682;SDS011;28293;50.930;3.464;2023-11-21T13:26:07;7.93;;;3.28;;
42682;SDS011;28293;50.930;3.464;2023-11-21T13:28:33;6.90;;;3.20;;
42682;SDS011;28293;50.930;3.464;2023-11-21T13:31:00;9.60;;;3.22;;
42682;SDS011;28293;50.930;3.464;2023-11-21T13:33:45;6.38;;;2.72;;
42682;SDS011;28293;50.930;3.464;2023-11-21T13:38:51;7.88;;;3.80;;
42682;SDS011;28293;50.930;3.464;2023-11-21T13:41:19;10.05;;;3.47;;
42682;SDS011;28293;50.930;3.464;2023-11-21T13:43:47;7.18;;;2.95;;
42682;SDS011;28293;50.930;3.464;2023-11-21T13:46:22;8.60;;;2.97;;
42682;SDS011;28293;50.930;3.464;2023-11-21T13:48:48;5.68;;;2.45;;
42682;SDS011;28293;50.930;3.464;2023-11-21T13:51:23;4.93;;;2.47;;
42682;SDS011;28293;50.930;3.464;2023-11-21T13:54:09;8.52;;;2.47;;
42682;SDS011;28293;50.930;3.464;2023-11-21T13:56:35;8.32;;;2.58;;
42682;SDS011;28293;50.930;3.464;2023-11-21T13:59:06;6.68;;;2.50;;
42682;SDS011;28293;50.930;3.464;2023-11-21T14:01:44;6.40;;;3.17;;
42682;SDS011;28293;50.930;3.464;2023-11-21T14:04:20;6.13;;;2.60;;
42682;SDS011;28293;50.930;3.464;2023-11-21T14:07:00;6.35;;;2.60;;
42682;SDS011;28293;50.930;3.464;2023-11-21T14:09:36;6.50;;;2.70;;
42682;SDS011;28293;50.930;3.464;2023-11-21T14:12:08;7.40;;;2.95;;
42682;SDS011;28293;50.930;3.464;2023-11-21T14:14:37;9.20;;;2.40;;
42682;SDS011;28293;50.930;3.464;2023-11-21T14:17:04;5.63;;;2.33;;
42682;SDS011;28293;50.930;3.464;2023-11-21T14:19:32;8.35;;;3.08;;
42682;SDS011;28293;50.930;3.464;2023-11-21T14:21:58;7.68;;;2.47;;
42682;SDS011;28293;50.930;3.464;2023-11-21T14:24:24;7.85;;;2.80;;
42682;SDS011;28293;50.930;3.464;2023-11-21T14:26:50;7.55;;;2.55;;
42682;SDS011;28293;50.930;3.464;2023-11-21T14:29:17;6.40;;;2.60;;
42682;SDS011;28293;50.930;3.464;2023-11-21T14:31:48;9.43;;;3.33;;
42682;SDS011;28293;50.930;3.464;2023-11-21T14:34:16;5.78;;;2.53;;
42682;SDS011;28293;50.930;3.464;2023-11-21T14:36:42;7.47;;;2.50;;
42682;SDS011;28293;50.930;3.464;2023-11-21T14:39:09;7.18;;;2.90;;
42682;SDS011;28293;50.930;3.464;2023-11-21T14:41:48;7.00;;;2.53;;
42682;SDS011;28293;50.930;3.464;2023-11-21T14:44:14;7.22;;;3.00;;
42682;SDS011;28293;50.930;3.464;2023-11-21T14:46:40;7.63;;;2.70;;
42682;SDS011;28293;50.930;3.464;2023-11-21T14:49:11;8.27;;;2.58;;
42682;SDS011;28293;50.930;3.464;2023-11-21T14:51:47;7.07;;;2.35;;